Latest Weather Observations for Shay Gap

IDW60801

Issued at 9:32 pm WST Tuesday 26 May 2015 (issued every 30 minutes, with the page automatically refreshed every 10 minutes)

About weather observations | Map of weather stations | Latest weather observations for WA | Other Formats
Station Details ID: 504045 Name: SHAY GAP Lat: -20.43 Lon: 120.13 Height: 173.83 m
Data from the previous 72 hours. | See also: Recent months for locations in Western Australia
Date/Time
WST
Temp
°C
App
Temp
°C
Dew
Point
Rel
Hum
%
Delta-T
°C
Wind Press
QNH
hPa
Press
MSL
hPa
Rain
since 9 am
mm
Dir
 
Spd
km/h
Gust
km/h
Spd
kts
Gust
kts
26/09:30pm 21.5 20.5 14.6 65 4.1 SE 13 17 7 9 1018.6 1017.8 0.0
26/09:00pm 21.6 21.5 15.9 70 3.4 SE 11 13 6 7 1018.5 1017.7 0.0
26/08:30pm 21.9 22.0 16.4 71 3.4 SSE 11 13 6 7 1018.5 1017.7 0.0
26/08:00pm 22.3 22.5 16.8 71 3.4 NE 11 15 6 8 1018.3 1017.5 0.0
26/07:30pm 22.2 22.5 16.9 72 3.3 NNE 11 13 6 7 1018.1 1017.3 0.0
26/07:00pm 22.0 22.1 16.5 71 3.4 NNE 11 13 6 7 1017.7 1016.9 0.0
26/06:30pm 22.5 23.4 16.5 69 3.7 NNE 7 9 4 5 1017.4 1016.6 0.0
26/06:00pm 23.3 24.8 15.6 62 4.7 NNE 2 6 1 3 1017.2 1016.4 0.0
26/05:30pm 24.2 24.1 14.0 53 6.0 NNE 7 11 4 6 1016.8 1016.0 0.0
26/05:00pm 25.3 24.2 13.2 47 7.1 NNE 11 13 6 7 1016.6 1015.9 0.0
26/04:30pm 25.4 24.8 13.6 48 7.0 N 9 15 5 8 1016.6 1015.9 0.0
26/04:00pm 25.7 24.0 13.5 46 7.2 N 15 20 8 11 1016.6 1015.9 0.0
26/03:30pm 26.2 23.3 14.0 47 7.3 N 22 28 12 15 1016.4 1015.7 0.0
26/03:00pm 26.8 23.8 12.4 40 8.4 N 20 28 11 15 1016.3 1015.6 0.0
26/02:30pm 26.9 23.8 12.2 40 8.6 N 20 28 11 15 1016.3 1015.6 0.0
26/02:00pm 27.5 23.8 12.7 40 8.7 NNE 24 33 13 18 1016.3 1015.6 0.0
26/01:30pm 28.5 24.7 9.7 31 10.6 NNE 20 26 11 14 1016.3 1015.6 0.0
26/01:00pm 27.3 24.2 8.7 31 10.2 NNE 15 28 8 15 1016.6 1015.9 0.0
26/12:30pm 27.1 24.1 10.7 35 9.3 NE 17 24 9 13 1017.2 1016.4 0.0
26/12:00pm 26.3 25.1 12.7 43 7.9 ENE 11 19 6 10 1017.4 1016.6 0.0
26/11:30am 25.1 22.6 12.3 45 7.4 ENE 17 20 9 11 1017.9 1017.1 0.0
26/11:00am 23.8 20.8 12.1 48 6.7 ENE 19 24 10 13 1018.3 1017.5 0.0
26/10:30am 23.8 20.3 12.1 48 6.7 ENE 22 26 12 14 1018.4 1017.6 0.0
26/10:00am 22.2 19.4 12.7 55 5.4 E 19 22 10 12 1018.7 1017.9 0.0
26/09:30am 21.8 18.8 12.6 56 5.3 ESE 20 26 11 14 1018.7 1017.9 0.0
26/09:00am 19.4 16.0 12.4 64 3.9 ESE 22 28 12 15 1018.8 1018.0 0.0
26/08:30am 18.4 15.2 13.0 71 3.1 SE 22 28 12 15 1018.9 1018.1 0.0
26/08:00am 17.8 15.0 12.7 72 2.9 SSE 19 26 10 14 1018.8 1018.0 0.0
26/07:30am 17.5 15.9 12.8 74 2.6 E 13 20 7 11 1017.9 1017.1 0.0
26/07:00am 17.2 15.5 12.3 73 2.7 E 13 20 7 11 1018.5 1017.7 0.0
26/06:30am 17.1 13.6 12.2 73 2.7 SE 22 30 12 16 1018.1 1017.3 0.0
26/06:00am 16.9 13.4 12.2 74 2.6 SE 22 30 12 16 1017.7 1016.9 0.0
26/05:30am 16.9 13.0 12.2 74 2.6 SE 24 30 13 16 1017.4 1016.6 0.0
26/05:00am 17.0 13.2 12.5 75 2.5 SE 24 32 13 17 1017.3 1016.5 0.0
26/04:30am 17.0 13.2 12.5 75 2.5 SE 24 33 13 18 1017.1 1016.3 0.0
26/04:00am 16.9 13.5 12.4 75 2.5 SE 22 30 12 16 1017.3 1016.5 0.0
26/03:30am 17.0 13.6 12.5 75 2.5 SE 22 30 12 16 1017.4 1016.6 0.0
26/03:00am 16.7 15.2 13.0 79 2.1 SSE 13 19 7 10 1017.7 1016.9 0.0
26/02:30am 16.7 15.1 12.8 78 2.2 SE 13 19 7 10 1017.2 1016.4 0.0
26/02:00am 17.1 14.2 12.8 76 2.4 ESE 20 26 11 14 1017.2 1016.4 0.0
26/01:30am 17.5 14.6 12.8 74 2.6 SE 20 28 11 15 1017.9 1017.1 0.0
26/01:00am 17.4 13.3 12.7 74 2.6 SE 26 33 14 18 1018.0 1017.2 0.0
26/12:30am 17.7 14.8 13.0 74 2.7 SE 20 26 11 14 1018.4 1017.6 0.0
26/12:00am 17.6 14.3 12.9 74 2.6 SE 22 28 12 15 1018.5 1017.7 0.0
 
Date/Time
WST
Temp
°C
App
Temp
°C
Dew
Point
Rel
Hum
%
Delta-T
°C
Wind Press
QNH
hPa
Press
MSL
hPa
Rain
since 9 am
mm
Dir
 
Spd
km/h
Gust
km/h
Spd
kts
Gust
kts
25/11:30pm 17.5 13.8 12.8 74 2.6 SE 24 30 13 16 1018.2 1017.4 0.0
25/11:00pm 17.8 14.2 12.9 73 2.8 SE 24 32 13 17 1018.4 1017.6 0.0
25/10:30pm 17.8 14.2 12.9 73 2.8 SE 24 33 13 18 1018.5 1017.7 0.0
25/10:00pm 17.7 14.5 13.0 74 2.6 SE 22 30 12 16 1018.5 1017.7 0.0
25/09:30pm 17.9 14.0 13.4 75 2.6 SE 26 33 14 18 1018.4 1017.6 0.0
25/09:00pm 18.0 13.3 13.3 74 2.7 ESE 30 41 16 22 1018.0 1017.2 0.0
25/08:30pm 17.9 13.8 13.8 77 2.4 SE 28 35 15 19 1018.3 1017.5 0.0
25/08:00pm 18.0 14.0 14.1 78 2.2 SE 28 37 15 20 1018.3 1017.5 0.0
25/07:30pm 18.0 14.4 14.3 79 2.1 SE 26 33 14 18 1018.0 1017.2 0.0
25/07:00pm 18.3 15.1 14.2 77 2.4 SE 24 32 13 17 1017.9 1017.1 0.0
25/06:30pm 18.7 16.3 14.4 76 2.5 SE 20 26 11 14 1017.5 1016.7 0.0
25/06:00pm 18.8 16.0 14.3 75 2.6 SE 22 30 12 16 1016.8 1016.0 0.0
25/05:30pm 19.3 16.5 14.3 73 2.9 SE 22 30 12 16 1016.2 1015.5 0.0
25/05:00pm 19.9 17.1 14.3 70 3.3 SE 22 30 12 16 1016.0 1015.2 0.0
25/04:30pm 20.7 18.0 14.6 68 3.6 SE 22 30 12 16 1015.8 1015.0 0.0
25/04:00pm 20.9 17.8 14.5 67 3.8 SE 24 32 13 17 1015.9 1015.1 0.0
25/03:30pm 21.1 17.2 14.3 65 4.0 ESE 28 35 15 19 1015.6 1014.8 0.0
25/03:00pm 21.3 16.9 14.2 64 4.2 ESE 30 39 16 21 1015.7 1014.9 0.0
25/02:30pm 21.0 16.1 13.7 63 4.2 SE 32 41 17 22 1015.8 1015.0 0.0
25/02:00pm 21.3 16.5 14.7 66 3.9 ESE 33 43 18 23 1016.1 1015.3 0.0
25/01:30pm 20.2 15.1 14.8 71 3.2 ESE 35 43 19 23 1016.5 1015.8 0.0
25/01:00pm 19.8 15.3 14.8 73 2.9 SE 32 41 17 22 1017.3 1016.5 0.0
25/12:30pm 18.6 13.7 14.3 76 2.5 SE 33 43 18 23 1017.9 1017.1 0.0
25/12:00pm 17.7 13.9 14.6 82 1.8 SE 28 41 15 22 1018.2 1017.4 0.0
25/11:30am 18.1 13.7 14.2 78 2.3 SE 30 39 16 21 1019.1 1018.3 0.0
25/11:00am 17.8 13.6 14.7 82 1.8 SE 30 39 16 21 1018.4 1017.6 0.0
25/10:30am 17.6 13.1 14.9 84 1.6 SE 32 43 17 23 1018.8 1018.0 0.0
25/10:00am 17.0 12.8 14.6 86 1.4 ESE 30 41 16 22 1019.2 1018.4 0.0
25/09:30am 16.6 11.9 14.4 87 1.3 SE 32 43 17 23 1018.4 1017.6 0.0
25/09:00am 16.1 13.0 14.6 91 0.9 SE 24 30 13 16 1019.5 1018.7 9.6
25/08:30am 15.7 11.9 14.7 94 0.6 ESE 28 35 15 19 1018.8 1018.0 9.6
25/08:00am 15.6 12.9 14.6 94 0.6 SSE 22 28 12 15 1019.7 1018.9 9.2
25/07:30am 15.6 13.4 14.5 93 0.6 ESE 19 26 10 14 1020.0 1019.2 8.0
25/07:00am 15.8 12.7 14.5 92 0.7 SE 24 32 13 17 1019.3 1018.5 6.6
25/06:30am 16.0 12.5 14.5 91 0.9 SE 26 33 14 18 1018.9 1018.1 6.4
25/06:00am 15.7 12.6 14.6 93 0.6 SE 24 35 13 19 1018.6 1017.8 6.2
25/05:30am 15.7 12.7 14.7 94 0.6 SE 24 30 13 16 1018.4 1017.6 5.4
25/05:00am 15.7 12.9 14.4 92 0.7 ESE 22 28 12 15 1018.2 1017.4 5.0
25/04:30am 15.9 13.5 14.3 90 0.9 SE 20 28 11 15 1017.9 1017.1 4.6
25/04:00am 16.5 13.5 13.8 84 1.5 SE 22 28 12 15 1017.6 1016.8 4.0
25/03:30am 16.6 13.1 13.5 82 1.8 SE 24 32 13 17 1017.2 1016.4 4.0
25/03:00am 16.3 12.6 14.0 86 1.3 SE 26 35 14 19 1016.9 1016.1 4.0
25/02:30am 16.1 13.0 14.5 90 0.9 SE 24 30 13 16 1017.1 1016.3 4.0
25/02:00am 16.0 13.3 14.5 91 0.9 ESE 22 32 12 17 1017.3 1016.5 4.0
25/01:30am 16.1 13.9 15.0 93 0.6 ESE 20 28 11 15 1017.7 1016.9 3.8
25/01:00am 16.4 13.9 15.1 92 0.8 SE 22 32 12 17 1017.6 1016.8 3.0
25/12:30am 16.5 13.6 15.0 91 0.9 SE 24 30 13 16 1017.5 1016.7 2.8
25/12:00am 16.7 14.2 15.1 90 0.9 SE 22 28 12 15 1017.5 1016.7 2.4
 
Date/Time
WST
Temp
°C
App
Temp
°C
Dew
Point
Rel
Hum
%
Delta-T
°C
Wind Press
QNH
hPa
Press
MSL
hPa
Rain
since 9 am
mm
Dir
 
Spd
km/h
Gust
km/h
Spd
kts
Gust
kts
24/11:30pm 16.7 13.8 15.2 91 0.9 SE 24 30 13 16 1017.3 1016.5 2.2
24/11:00pm 16.9 15.0 15.1 89 1.1 SE 19 26 10 14 1018.1 1017.3 2.0
24/10:30pm 17.1 14.5 14.9 87 1.3 SE 22 28 12 15 1017.8 1017.0 2.0
24/10:00pm 17.1 14.9 14.9 87 1.3 SE 20 30 11 16 1018.0 1017.2 2.0
24/09:30pm 17.0 14.7 14.6 86 1.4 ESE 20 28 11 15 1017.9 1017.1 2.0
24/09:00pm 17.1 14.5 14.9 87 1.3 SE 22 32 12 17 1018.1 1017.3 2.0
24/08:30pm 17.4 14.0 14.7 84 1.6 SE 26 35 14 19 1017.6 1016.8 2.0
24/08:00pm 17.5 14.1 14.8 84 1.6 SE 26 33 14 18 1017.4 1016.6 2.0
24/07:30pm 17.7 14.3 14.8 83 1.7 SE 26 33 14 18 1017.3 1016.5 2.0
24/07:00pm 17.4 13.5 14.5 83 1.7 SE 28 35 15 19 1016.8 1016.0 2.0
24/06:30pm 17.7 13.7 14.2 80 2.0 SE 28 39 15 21 1016.6 1015.9 1.8
24/06:00pm 17.6 15.0 15.0 85 1.5 SE 22 30 12 16 1016.9 1016.1 1.8
24/05:30pm 17.5 15.6 15.7 89 1.1 SE 20 26 11 14 1016.9 1016.1 1.8
24/05:00pm 17.7 15.8 15.7 88 1.2 SSE 20 28 11 15 1016.6 1015.9 1.6
24/04:30pm 18.0 16.0 15.6 86 1.4 SSE 20 26 11 14 1016.4 1015.7 1.2
24/04:00pm 18.2 17.0 16.0 87 1.3 SSE 17 20 9 11 1016.2 1015.5 1.0
24/03:30pm 18.4 17.4 15.6 84 1.7 S 15 17 8 9 1016.3 1015.6 0.8
24/03:00pm 18.9 18.4 15.8 82 1.8 S 13 15 7 8 1016.2 1015.5 0.6
24/02:30pm 19.5 18.2 14.7 74 2.8 SSE 15 17 8 9 1016.1 1015.3 0.4
24/02:00pm 20.0 20.9 15.2 74 2.8 E 4 9 2 5 1016.6 1015.9 0.2
24/01:30pm 20.6 20.5 13.8 65 4.0 E 7 9 4 5 1016.8 1016.0 0.0
24/01:00pm 20.5 17.7 12.7 61 4.4 SE 19 22 10 12 1016.1 1015.3 0.0
24/12:30pm 21.2 18.6 12.1 56 5.1 SE 17 22 9 12 1016.5 1015.8 0.0
24/12:00pm 21.0 17.8 11.9 56 5.1 SE 20 26 11 14 1016.5 1015.8 0.0
24/11:30am 21.0 17.8 11.9 56 5.1 ESE 20 28 11 15 1016.9 1016.1 0.0
24/11:00am 20.5 16.0 11.4 56 5.1 SE 26 32 14 17 1016.8 1016.0 0.0
24/10:30am 20.9 16.1 11.8 56 5.1 SE 28 35 15 19 1017.1 1016.3 0.0
24/10:00am 20.5 16.2 12.2 59 4.7 SE 26 35 14 19 1017.1 1016.3 0.0
24/09:30am 19.7 16.0 12.7 64 4.0 SE 24 32 13 17 1017.4 1016.6 0.0
24/09:00am 19.3 14.5 13.0 67 3.6 SE 30 41 16 22 1017.1 1016.3 -
24/08:30am 18.9 14.7 13.5 71 3.1 SE 28 39 15 21 1016.5 1015.8 -
24/08:00am 19.0 16.2 14.3 74 2.7 SE 22 32 12 17 1016.5 1015.8 -
24/07:30am 18.8 16.5 14.1 74 2.7 SE 19 24 10 13 1017.0 1016.2 -
24/07:00am 18.1 16.0 15.2 83 1.7 SSE 20 24 11 13 1016.5 1015.8 -
24/06:30am 18.1 16.6 15.4 84 1.6 SSE 17 20 9 11 1016.8 1016.0 -
24/06:00am 18.1 16.1 15.5 85 1.5 SSE 20 24 11 13 1016.3 1015.6 -
24/05:30am 18.4 16.4 15.6 84 1.7 SSE 20 26 11 14 1015.7 1014.9 -
24/05:00am 18.1 16.9 16.1 88 1.2 SSE 17 22 9 12 1016.1 1015.3 -
24/04:30am 18.7 17.7 15.6 82 1.8 SE 15 22 8 12 1015.7 1014.9 -
24/04:00am 19.0 16.6 15.5 80 2.1 SSE 22 30 12 16 1015.2 1014.4 -
24/03:30am 20.0 16.5 14.6 71 3.2 SE 26 32 14 17 1015.0 1014.2 -
24/03:00am 20.6 16.5 13.8 65 3.9 SE 28 35 15 19 1014.9 1014.1 0.0
24/02:30am 20.9 17.1 13.6 63 4.2 SE 26 33 14 18 1014.8 1014.0 -
24/02:00am 21.1 17.5 13.0 60 4.6 SE 24 30 13 16 1015.2 1014.4 -
24/01:30am 21.5 17.6 13.2 59 4.8 SE 26 33 14 18 1015.3 1014.5 -
24/01:00am 22.1 19.3 13.2 57 5.1 SE 20 28 11 15 1015.3 1014.5 -
24/12:30am 22.3 18.7 14.2 60 4.8 SSE 26 33 14 18 1015.6 1014.8 -
24/12:00am 22.7 20.3 15.5 64 4.3 SSE 22 30 12 16 1015.7 1014.9 -
 
Date/Time
WST
Temp
°C
App
Temp
°C
Dew
Point
Rel
Hum
%
Delta-T
°C
Wind Press
QNH
hPa
Press
MSL
hPa
Rain
since 9 am
mm
Dir
 
Spd
km/h
Gust
km/h
Spd
kts
Gust
kts
23/11:30pm 23.0 20.9 15.3 62 4.6 SSE 20 24 11 13 1015.9 1015.1 -
23/11:00pm 23.0 21.6 15.6 63 4.5 SSE 17 20 9 11 1015.9 1015.1 -
23/10:30pm 23.5 21.5 15.0 59 5.1 S 19 24 10 13 1016.2 1015.5 -
23/10:00pm 23.9 22.2 14.6 56 5.6 S 17 24 9 13 1016.4 1015.7 -

Other Formats:

Comma delimited format used in spreadsheet applications
http://www.bom.gov.au/fwo/IDW60801/IDW60801.99311.axf

JavaScript Object Notation format (JSON) in row-major order
http://www.bom.gov.au/fwo/IDW60801/IDW60801.99311.json